sensor_id;sensor_type;location;lat;lon;timestamp;P1;durP1;ratioP1;P2;durP2;ratioP2
49450;SDS011;35336;48.400;10.886;2022-11-09T00:00:14;8.97;;;4.57;;
49450;SDS011;35336;48.400;10.886;2022-11-09T00:00:30;9.05;;;4.35;;
49450;SDS011;35336;48.400;10.886;2022-11-09T00:00:45;8.60;;;4.30;;
49450;SDS011;35336;48.400;10.886;2022-11-09T00:01:02;8.32;;;4.00;;
49450;SDS011;35336;48.400;10.886;2022-11-09T00:01:18;6.97;;;4.10;;
49450;SDS011;35336;48.400;10.886;2022-11-09T00:01:34;6.95;;;4.38;;
49450;SDS011;35336;48.400;10.886;2022-11-09T00:01:50;6.83;;;4.33;;
49450;SDS011;35336;48.400;10.886;2022-11-09T00:02:05;7.90;;;4.50;;
49450;SDS011;35336;48.400;10.886;2022-11-09T00:02:20;7.57;;;4.40;;
49450;SDS011;35336;48.400;10.886;2022-11-09T00:02:36;7.20;;;4.23;;
49450;SDS011;35336;48.400;10.886;2022-11-09T00:02:53;8.23;;;4.47;;
49450;SDS011;35336;48.400;10.886;2022-11-09T00:03:09;8.70;;;4.60;;
49450;SDS011;35336;48.400;10.886;2022-11-09T00:03:25;9.30;;;4.30;;
49450;SDS011;35336;48.400;10.886;2022-11-09T00:03:40;8.25;;;4.35;;
49450;SDS011;35336;48.400;10.886;2022-11-09T00:03:56;6.53;;;4.40;;
49450;SDS011;35336;48.400;10.886;2022-11-09T00:04:12;7.70;;;4.47;;
49450;SDS011;35336;48.400;10.886;2022-11-09T00:04:28;6.67;;;4.30;;
49450;SDS011;35336;48.400;10.886;2022-11-09T00:04:43;6.75;;;4.00;;
49450;SDS011;35336;48.400;10.886;2022-11-09T00:04:58;8.17;;;4.00;;
49450;SDS011;35336;48.400;10.886;2022-11-09T00:05:14;7.67;;;4.17;;
49450;SDS011;35336;48.400;10.886;2022-11-09T00:05:29;7.40;;;4.00;;
49450;SDS011;35336;48.400;10.886;2022-11-09T00:05:57;7.57;;;3.93;;
49450;SDS011;35336;48.400;10.886;2022-11-09T00:06:13;8.45;;;4.25;;
49450;SDS011;35336;48.400;10.886;2022-11-09T00:06:29;8.40;;;4.30;;
49450;SDS011;35336;48.400;10.886;2022-11-09T00:06:45;7.32;;;4.10;;
49450;SDS011;35336;48.400;10.886;2022-11-09T00:07:00;6.23;;;3.80;;
49450;SDS011;35336;48.400;10.886;2022-11-09T00:07:16;6.47;;;3.87;;
49450;SDS011;35336;48.400;10.886;2022-11-09T00:07:31;7.43;;;4.10;;
49450;SDS011;35336;48.400;10.886;2022-11-09T00:07:46;6.87;;;3.97;;
49450;SDS011;35336;48.400;10.886;2022-11-09T00:08:04;5.13;;;3.70;;
49450;SDS011;35336;48.400;10.886;2022-11-09T00:08:20;6.70;;;3.72;;
49450;SDS011;35336;48.400;10.886;2022-11-09T00:08:36;7.20;;;3.93;;
49450;SDS011;35336;48.400;10.886;2022-11-09T00:08:52;5.55;;;3.88;;
49450;SDS011;35336;48.400;10.886;2022-11-09T00:09:07;10.02;;;3.92;;
49450;SDS011;35336;48.400;10.886;2022-11-09T00:09:23;11.37;;;4.13;;
49450;SDS011;35336;48.400;10.886;2022-11-09T00:09:38;7.25;;;4.00;;
49450;SDS011;35336;48.400;10.886;2022-11-09T00:09:53;7.13;;;3.60;;
49450;SDS011;35336;48.400;10.886;2022-11-09T00:10:09;8.52;;;3.75;;
49450;SDS011;35336;48.400;10.886;2022-11-09T00:10:24;7.80;;;3.70;;
49450;SDS011;35336;48.400;10.886;2022-11-09T00:10:40;6.67;;;3.73;;
49450;SDS011;35336;48.400;10.886;2022-11-09T00:11:00;7.05;;;4.25;;
49450;SDS011;35336;48.400;10.886;2022-11-09T00:11:19;8.18;;;4.03;;
49450;SDS011;35336;48.400;10.886;2022-11-09T00:11:35;7.03;;;4.17;;
49450;SDS011;35336;48.400;10.886;2022-11-09T00:11:51;7.10;;;4.00;;
49450;SDS011;35336;48.400;10.886;2022-11-09T00:12:07;6.00;;;3.90;;
49450;SDS011;35336;48.400;10.886;2022-11-09T00:12:22;7.07;;;4.03;;
49450;SDS011;35336;48.400;10.886;2022-11-09T00:12:38;7.13;;;3.83;;
49450;SDS011;35336;48.400;10.886;2022-11-09T00:12:53;5.17;;;3.60;;
49450;SDS011;35336;48.400;10.886;2022-11-09T00:13:08;4.93;;;3.77;;
49450;SDS011;35336;48.400;10.886;2022-11-09T00:13:24;5.72;;;3.97;;
49450;SDS011;35336;48.400;10.886;2022-11-09T00:13:40;6.70;;;4.00;;
49450;SDS011;35336;48.400;10.886;2022-11-09T00:13:56;10.05;;;4.15;;
49450;SDS011;35336;48.400;10.886;2022-11-09T00:14:15;9.00;;;4.20;;
49450;SDS011;35336;48.400;10.886;2022-11-09T00:14:31;7.35;;;4.05;;
49450;SDS011;35336;48.400;10.886;2022-11-09T00:14:48;6.60;;;3.72;;
49450;SDS011;35336;48.400;10.886;2022-11-09T00:15:03;5.50;;;3.73;;
49450;SDS011;35336;48.400;10.886;2022-11-09T00:15:18;8.17;;;4.23;;
49450;SDS011;35336;48.400;10.886;2022-11-09T00:15:34;9.52;;;4.18;;
49450;SDS011;35336;48.400;10.886;2022-11-09T00:15:49;9.03;;;4.13;;
49450;SDS011;35336;48.400;10.886;2022-11-09T00:16:05;7.87;;;3.80;;
49450;SDS011;35336;48.400;10.886;2022-11-09T00:16:21;7.13;;;3.80;;
49450;SDS011;35336;48.400;10.886;2022-11-09T00:16:36;6.10;;;3.67;;
49450;SDS011;35336;48.400;10.886;2022-11-09T00:16:52;4.93;;;3.47;;
49450;SDS011;35336;48.400;10.886;2022-11-09T00:17:07;6.70;;;4.00;;
49450;SDS011;35336;48.400;10.886;2022-11-09T00:17:22;7.43;;;4.07;;
49450;SDS011;35336;48.400;10.886;2022-11-09T00:17:37;5.72;;;3.60;;
49450;SDS011;35336;48.400;10.886;2022-11-09T00:17:53;4.53;;;3.50;;
49450;SDS011;35336;48.400;10.886;2022-11-09T00:18:08;5.33;;;3.83;;
49450;SDS011;35336;48.400;10.886;2022-11-09T00:18:24;6.22;;;3.80;;
49450;SDS011;35336;48.400;10.886;2022-11-09T00:18:39;5.40;;;3.47;;
49450;SDS011;35336;48.400;10.886;2022-11-09T00:18:55;5.47;;;3.58;;
49450;SDS011;35336;48.400;10.886;2022-11-09T00:19:10;6.60;;;3.92;;
49450;SDS011;35336;48.400;10.886;2022-11-09T00:19:26;8.20;;;4.00;;
49450;SDS011;35336;48.400;10.886;2022-11-09T00:19:41;7.63;;;3.73;;
49450;SDS011;35336;48.400;10.886;2022-11-09T00:19:56;6.78;;;3.70;;
49450;SDS011;35336;48.400;10.886;2022-11-09T00:20:12;6.57;;;3.83;;
49450;SDS011;35336;48.400;10.886;2022-11-09T00:20:27;5.30;;;3.70;;
49450;SDS011;35336;48.400;10.886;2022-11-09T00:20:42;5.68;;;3.70;;
49450;SDS011;35336;48.400;10.886;2022-11-09T00:20:58;8.00;;;3.97;;
49450;SDS011;35336;48.400;10.886;2022-11-09T00:21:15;10.30;;;4.10;;
49450;SDS011;35336;48.400;10.886;2022-11-09T00:21:36;6.75;;;3.67;;
49450;SDS011;35336;48.400;10.886;2022-11-09T00:21:51;5.83;;;3.43;;
49450;SDS011;35336;48.400;10.886;2022-11-09T00:22:06;7.03;;;3.50;;
49450;SDS011;35336;48.400;10.886;2022-11-09T00:22:22;8.57;;;3.80;;
49450;SDS011;35336;48.400;10.886;2022-11-09T00:22:37;8.30;;;3.83;;
49450;SDS011;35336;48.400;10.886;2022-11-09T00:22:52;7.00;;;4.13;;
49450;SDS011;35336;48.400;10.886;2022-11-09T00:23:08;7.20;;;3.92;;
49450;SDS011;35336;48.400;10.886;2022-11-09T00:23:23;8.07;;;3.57;;
49450;SDS011;35336;48.400;10.886;2022-11-09T00:23:38;7.17;;;3.77;;
49450;SDS011;35336;48.400;10.886;2022-11-09T00:23:53;5.13;;;3.35;;
49450;SDS011;35336;48.400;10.886;2022-11-09T00:24:09;6.17;;;3.40;;
49450;SDS011;35336;48.400;10.886;2022-11-09T00:24:24;6.30;;;3.87;;
49450;SDS011;35336;48.400;10.886;2022-11-09T00:24:39;4.85;;;3.85;;
49450;SDS011;35336;48.400;10.886;2022-11-09T00:24:55;5.03;;;3.70;;
49450;SDS011;35336;48.400;10.886;2022-11-09T00:25:10;6.27;;;3.50;;
49450;SDS011;35336;48.400;10.886;2022-11-09T00:25:25;6.30;;;3.45;;
49450;SDS011;35336;48.400;10.886;2022-11-09T00:25:41;5.90;;;3.40;;
49450;SDS011;35336;48.400;10.886;2022-11-09T00:26:03;6.87;;;3.77;;
49450;SDS011;35336;48.400;10.886;2022-11-09T00:26:20;5.10;;;3.80;;
49450;SDS011;35336;48.400;10.886;2022-11-09T00:26:35;6.85;;;3.70;;
49450;SDS011;35336;48.400;10.886;2022-11-09T00:26:51;6.97;;;3.60;;
49450;SDS011;35336;48.400;10.886;2022-11-09T00:27:06;7.20;;;3.60;;
49450;SDS011;35336;48.400;10.886;2022-11-09T00:27:22;7.37;;;3.53;;
49450;SDS011;35336;48.400;10.886;2022-11-09T00:27:37;5.33;;;3.37;;
49450;SDS011;35336;48.400;10.886;2022-11-09T00:27:52;5.43;;;3.47;;
49450;SDS011;35336;48.400;10.886;2022-11-09T00:28:08;5.70;;;3.75;;
49450;SDS011;35336;48.400;10.886;2022-11-09T00:28:23;7.60;;;4.00;;
49450;SDS011;35336;48.400;10.886;2022-11-09T00:28:38;7.13;;;3.97;;
49450;SDS011;35336;48.400;10.886;2022-11-09T00:28:54;5.80;;;3.80;;
49450;SDS011;35336;48.400;10.886;2022-11-09T00:29:10;7.40;;;3.53;;
49450;SDS011;35336;48.400;10.886;2022-11-09T00:29:25;6.23;;;3.50;;
49450;SDS011;35336;48.400;10.886;2022-11-09T00:29:40;5.70;;;3.67;;
49450;SDS011;35336;48.400;10.886;2022-11-09T00:29:55;6.43;;;3.80;;
49450;SDS011;35336;48.400;10.886;2022-11-09T00:30:11;6.43;;;3.70;;
49450;SDS011;35336;48.400;10.886;2022-11-09T00:30:26;6.97;;;3.80;;
49450;SDS011;35336;48.400;10.886;2022-11-09T00:30:41;6.50;;;3.80;;
49450;SDS011;35336;48.400;10.886;2022-11-09T00:31:00;5.60;;;3.63;;
49450;SDS011;35336;48.400;10.886;2022-11-09T00:31:20;5.20;;;3.47;;
49450;SDS011;35336;48.400;10.886;2022-11-09T00:31:36;4.93;;;3.53;;
49450;SDS011;35336;48.400;10.886;2022-11-09T00:31:52;5.27;;;3.57;;
49450;SDS011;35336;48.400;10.886;2022-11-09T00:32:07;5.32;;;3.22;;
49450;SDS011;35336;48.400;10.886;2022-11-09T00:32:22;5.87;;;3.37;;
49450;SDS011;35336;48.400;10.886;2022-11-09T00:32:38;5.37;;;3.77;;
49450;SDS011;35336;48.400;10.886;2022-11-09T00:32:53;6.67;;;3.80;;
49450;SDS011;35336;48.400;10.886;2022-11-09T00:33:09;7.35;;;3.58;;
49450;SDS011;35336;48.400;10.886;2022-11-09T00:33:24;6.97;;;3.70;;
49450;SDS011;35336;48.400;10.886;2022-11-09T00:33:40;8.03;;;3.80;;
49450;SDS011;35336;48.400;10.886;2022-11-09T00:33:56;6.60;;;3.47;;
49450;SDS011;35336;48.400;10.886;2022-11-09T00:34:11;6.13;;;3.50;;
49450;SDS011;35336;48.400;10.886;2022-11-09T00:34:27;6.97;;;3.70;;
49450;SDS011;35336;48.400;10.886;2022-11-09T00:34:42;5.13;;;3.63;;
49450;SDS011;35336;48.400;10.886;2022-11-09T00:34:57;5.10;;;3.57;;
49450;SDS011;35336;48.400;10.886;2022-11-09T00:35:13;6.43;;;3.63;;
49450;SDS011;35336;48.400;10.886;2022-11-09T00:35:28;6.75;;;3.70;;
49450;SDS011;35336;48.400;10.886;2022-11-09T00:35:43;6.63;;;3.80;;
49450;SDS011;35336;48.400;10.886;2022-11-09T00:36:01;6.03;;;3.47;;
49450;SDS011;35336;48.400;10.886;2022-11-09T00:36:21;6.93;;;3.40;;
49450;SDS011;35336;48.400;10.886;2022-11-09T00:36:37;6.25;;;3.63;;
49450;SDS011;35336;48.400;10.886;2022-11-09T00:36:53;5.50;;;3.67;;
49450;SDS011;35336;48.400;10.886;2022-11-09T00:37:08;5.50;;;3.50;;
49450;SDS011;35336;48.400;10.886;2022-11-09T00:37:23;5.95;;;3.70;;
49450;SDS011;35336;48.400;10.886;2022-11-09T00:37:38;5.60;;;3.63;;
49450;SDS011;35336;48.400;10.886;2022-11-09T00:37:54;4.73;;;3.47;;
49450;SDS011;35336;48.400;10.886;2022-11-09T00:38:09;4.78;;;3.45;;
49450;SDS011;35336;48.400;10.886;2022-11-09T00:38:24;5.93;;;3.47;;
49450;SDS011;35336;48.400;10.886;2022-11-09T00:38:40;6.00;;;3.60;;
49450;SDS011;35336;48.400;10.886;2022-11-09T00:38:56;5.72;;;3.53;;
49450;SDS011;35336;48.400;10.886;2022-11-09T00:39:13;5.95;;;3.38;;
49450;SDS011;35336;48.400;10.886;2022-11-09T00:39:28;6.70;;;3.50;;
49450;SDS011;35336;48.400;10.886;2022-11-09T00:39:44;6.73;;;3.37;;
49450;SDS011;35336;48.400;10.886;2022-11-09T00:39:59;5.40;;;3.30;;
49450;SDS011;35336;48.400;10.886;2022-11-09T00:40:14;6.03;;;3.33;;
49450;SDS011;35336;48.400;10.886;2022-11-09T00:40:30;6.10;;;3.47;;
49450;SDS011;35336;48.400;10.886;2022-11-09T00:40:45;5.35;;;3.60;;
49450;SDS011;35336;48.400;10.886;2022-11-09T00:41:01;5.40;;;3.67;;
49450;SDS011;35336;48.400;10.886;2022-11-09T00:41:17;5.63;;;3.40;;
49450;SDS011;35336;48.400;10.886;2022-11-09T00:41:33;6.88;;;3.55;;
49450;SDS011;35336;48.400;10.886;2022-11-09T00:41:48;7.30;;;3.80;;
49450;SDS011;35336;48.400;10.886;2022-11-09T00:42:04;7.25;;;3.63;;
49450;SDS011;35336;48.400;10.886;2022-11-09T00:42:19;7.00;;;3.53;;
49450;SDS011;35336;48.400;10.886;2022-11-09T00:42:34;4.80;;;3.23;;
49450;SDS011;35336;48.400;10.886;2022-11-09T00:42:50;4.63;;;3.20;;
49450;SDS011;35336;48.400;10.886;2022-11-09T00:43:05;4.13;;;3.17;;
49450;SDS011;35336;48.400;10.886;2022-11-09T00:43:20;3.70;;;3.10;;
49450;SDS011;35336;48.400;10.886;2022-11-09T00:43:36;5.53;;;3.27;;
49450;SDS011;35336;48.400;10.886;2022-11-09T00:43:51;7.07;;;3.60;;
49450;SDS011;35336;48.400;10.886;2022-11-09T00:44:07;7.10;;;3.63;;
49450;SDS011;35336;48.400;10.886;2022-11-09T00:44:22;6.70;;;3.47;;
49450;SDS011;35336;48.400;10.886;2022-11-09T00:44:38;6.23;;;3.57;;
49450;SDS011;35336;48.400;10.886;2022-11-09T00:44:53;6.25;;;3.50;;
49450;SDS011;35336;48.400;10.886;2022-11-09T00:45:08;5.37;;;3.33;;
49450;SDS011;35336;48.400;10.886;2022-11-09T00:45:24;4.97;;;3.47;;
49450;SDS011;35336;48.400;10.886;2022-11-09T00:45:39;5.63;;;3.50;;
49450;SDS011;35336;48.400;10.886;2022-11-09T00:45:54;6.03;;;3.40;;
49450;SDS011;35336;48.400;10.886;2022-11-09T00:46:10;5.38;;;3.38;;
49450;SDS011;35336;48.400;10.886;2022-11-09T00:46:25;5.17;;;3.50;;
49450;SDS011;35336;48.400;10.886;2022-11-09T00:46:41;5.80;;;3.60;;
49450;SDS011;35336;48.400;10.886;2022-11-09T00:46:56;7.77;;;3.50;;
49450;SDS011;35336;48.400;10.886;2022-11-09T00:47:11;7.73;;;3.57;;
49450;SDS011;35336;48.400;10.886;2022-11-09T00:47:27;5.23;;;3.27;;
49450;SDS011;35336;48.400;10.886;2022-11-09T00:47:43;5.27;;;3.13;;
49450;SDS011;35336;48.400;10.886;2022-11-09T00:47:58;5.35;;;3.50;;
49450;SDS011;35336;48.400;10.886;2022-11-09T00:48:13;6.17;;;3.60;;
49450;SDS011;35336;48.400;10.886;2022-11-09T00:48:29;6.00;;;3.30;;
49450;SDS011;35336;48.400;10.886;2022-11-09T00:48:44;4.97;;;3.30;;
49450;SDS011;35336;48.400;10.886;2022-11-09T00:49:00;7.50;;;3.30;;
49450;SDS011;35336;48.400;10.886;2022-11-09T00:49:15;7.37;;;3.30;;
49450;SDS011;35336;48.400;10.886;2022-11-09T00:49:31;5.80;;;3.35;;
49450;SDS011;35336;48.400;10.886;2022-11-09T00:49:46;8.20;;;3.40;;
49450;SDS011;35336;48.400;10.886;2022-11-09T00:50:01;9.37;;;3.53;;
49450;SDS011;35336;48.400;10.886;2022-11-09T00:50:17;5.97;;;3.20;;
49450;SDS011;35336;48.400;10.886;2022-11-09T00:50:32;4.87;;;3.20;;
49450;SDS011;35336;48.400;10.886;2022-11-09T00:50:49;7.37;;;3.47;;
49450;SDS011;35336;48.400;10.886;2022-11-09T00:51:04;6.93;;;3.58;;
49450;SDS011;35336;48.400;10.886;2022-11-09T00:51:20;5.53;;;3.60;;
49450;SDS011;35336;48.400;10.886;2022-11-09T00:51:36;5.28;;;3.38;;
49450;SDS011;35336;48.400;10.886;2022-11-09T00:51:51;5.63;;;3.17;;
49450;SDS011;35336;48.400;10.886;2022-11-09T00:52:07;5.95;;;3.10;;
49450;SDS011;35336;48.400;10.886;2022-11-09T00:52:22;5.70;;;3.17;;
49450;SDS011;35336;48.400;10.886;2022-11-09T00:52:37;5.28;;;2.95;;
49450;SDS011;35336;48.400;10.886;2022-11-09T00:52:53;4.07;;;2.87;;
49450;SDS011;35336;48.400;10.886;2022-11-09T00:53:08;5.07;;;3.10;;
49450;SDS011;35336;48.400;10.886;2022-11-09T00:53:24;5.18;;;3.25;;
49450;SDS011;35336;48.400;10.886;2022-11-09T00:53:40;4.85;;;3.30;;
49450;SDS011;35336;48.400;10.886;2022-11-09T00:53:55;5.37;;;3.50;;
49450;SDS011;35336;48.400;10.886;2022-11-09T00:54:11;4.70;;;3.10;;
49450;SDS011;35336;48.400;10.886;2022-11-09T00:54:26;5.33;;;3.00;;
49450;SDS011;35336;48.400;10.886;2022-11-09T00:54:41;6.05;;;3.30;;
49450;SDS011;35336;48.400;10.886;2022-11-09T00:54:57;4.80;;;3.40;;
49450;SDS011;35336;48.400;10.886;2022-11-09T00:55:12;5.50;;;3.30;;
49450;SDS011;35336;48.400;10.886;2022-11-09T00:55:27;5.25;;;3.10;;
49450;SDS011;35336;48.400;10.886;2022-11-09T00:55:51;5.53;;;3.20;;
49450;SDS011;35336;48.400;10.886;2022-11-09T00:56:13;4.93;;;3.25;;
49450;SDS011;35336;48.400;10.886;2022-11-09T00:56:28;6.20;;;3.00;;
49450;SDS011;35336;48.400;10.886;2022-11-09T00:56:43;7.13;;;2.97;;
49450;SDS011;35336;48.400;10.886;2022-11-09T00:56:59;5.67;;;3.23;;
49450;SDS011;35336;48.400;10.886;2022-11-09T00:57:14;6.93;;;3.30;;
49450;SDS011;35336;48.400;10.886;2022-11-09T00:57:29;10.00;;;3.20;;
49450;SDS011;35336;48.400;10.886;2022-11-09T00:57:48;8.00;;;3.23;;
49450;SDS011;35336;48.400;10.886;2022-11-09T00:58:04;4.82;;;3.35;;
49450;SDS011;35336;48.400;10.886;2022-11-09T00:58:19;5.85;;;3.40;;
49450;SDS011;35336;48.400;10.886;2022-11-09T00:58:35;6.23;;;3.37;;
49450;SDS011;35336;48.400;10.886;2022-11-09T00:58:53;6.15;;;3.25;;
49450;SDS011;35336;48.400;10.886;2022-11-09T00:59:09;7.22;;;3.17;;
49450;SDS011;35336;48.400;10.886;2022-11-09T00:59:25;6.10;;;3.08;;
49450;SDS011;35336;48.400;10.886;2022-11-09T00:59:40;5.13;;;2.97;;
49450;SDS011;35336;48.400;10.886;2022-11-09T00:59:55;5.03;;;2.85;;
49450;SDS011;35336;48.400;10.886;2022-11-09T01:00:11;5.77;;;3.23;;
49450;SDS011;35336;48.400;10.886;2022-11-09T01:00:26;5.72;;;3.47;;
49450;SDS011;35336;48.400;10.886;2022-11-09T01:00:42;4.63;;;3.17;;
49450;SDS011;35336;48.400;10.886;2022-11-09T01:00:57;5.07;;;3.03;;
49450;SDS011;35336;48.400;10.886;2022-11-09T01:01:15;7.78;;;3.15;;
49450;SDS011;35336;48.400;10.886;2022-11-09T01:01:32;5.60;;;3.30;;
49450;SDS011;35336;48.400;10.886;2022-11-09T01:01:48;4.78;;;3.22;;
49450;SDS011;35336;48.400;10.886;2022-11-09T01:02:03;4.55;;;2.70;;
49450;SDS011;35336;48.400;10.886;2022-11-09T01:02:18;4.37;;;2.80;;
49450;SDS011;35336;48.400;10.886;2022-11-09T01:02:34;6.30;;;3.50;;
49450;SDS011;35336;48.400;10.886;2022-11-09T01:02:49;6.97;;;3.58;;
49450;SDS011;35336;48.400;10.886;2022-11-09T01:03:05;6.40;;;3.53;;
49450;SDS011;35336;48.400;10.886;2022-11-09T01:03:20;7.13;;;3.50;;
49450;SDS011;35336;48.400;10.886;2022-11-09T01:03:36;8.02;;;3.22;;
49450;SDS011;35336;48.400;10.886;2022-11-09T01:03:52;5.55;;;2.83;;
49450;SDS011;35336;48.400;10.886;2022-11-09T01:04:07;3.80;;;2.88;;
49450;SDS011;35336;48.400;10.886;2022-11-09T01:04:23;3.83;;;2.97;;
49450;SDS011;35336;48.400;10.886;2022-11-09T01:04:38;4.90;;;3.15;;
49450;SDS011;35336;48.400;10.886;2022-11-09T01:04:53;6.20;;;3.23;;
49450;SDS011;35336;48.400;10.886;2022-11-09T01:05:09;5.40;;;2.93;;
49450;SDS011;35336;48.400;10.886;2022-11-09T01:05:24;4.63;;;2.92;;
49450;SDS011;35336;48.400;10.886;2022-11-09T01:05:40;3.93;;;2.93;;
49450;SDS011;35336;48.400;10.886;2022-11-09T01:05:57;6.25;;;2.83;;
49450;SDS011;35336;48.400;10.886;2022-11-09T01:06:18;7.63;;;2.90;;
49450;SDS011;35336;48.400;10.886;2022-11-09T01:06:36;5.15;;;2.92;;
49450;SDS011;35336;48.400;10.886;2022-11-09T01:06:51;5.38;;;2.88;;
49450;SDS011;35336;48.400;10.886;2022-11-09T01:07:06;5.23;;;2.73;;
49450;SDS011;35336;48.400;10.886;2022-11-09T01:07:22;5.20;;;3.00;;
49450;SDS011;35336;48.400;10.886;2022-11-09T01:07:38;5.63;;;3.20;;
49450;SDS011;35336;48.400;10.886;2022-11-09T01:07:53;5.53;;;3.10;;
49450;SDS011;35336;48.400;10.886;2022-11-09T01:08:08;4.30;;;3.00;;
49450;SDS011;35336;48.400;10.886;2022-11-09T01:08:24;4.20;;;2.90;;
49450;SDS011;35336;48.400;10.886;2022-11-09T01:08:39;3.93;;;3.00;;
49450;SDS011;35336;48.400;10.886;2022-11-09T01:08:55;4.40;;;3.10;;
49450;SDS011;35336;48.400;10.886;2022-11-09T01:09:11;9.93;;;3.30;;
49450;SDS011;35336;48.400;10.886;2022-11-09T01:09:26;10.03;;;3.40;;
49450;SDS011;35336;48.400;10.886;2022-11-09T01:09:42;4.07;;;2.97;;
49450;SDS011;35336;48.400;10.886;2022-11-09T01:09:57;3.63;;;2.60;;
49450;SDS011;35336;48.400;10.886;2022-11-09T01:10:12;4.57;;;2.80;;
49450;SDS011;35336;48.400;10.886;2022-11-09T01:10:28;4.93;;;3.23;;
49450;SDS011;35336;48.400;10.886;2022-11-09T01:10:44;5.50;;;3.13;;
49450;SDS011;35336;48.400;10.886;2022-11-09T01:11:07;4.45;;;2.90;;
49450;SDS011;35336;48.400;10.886;2022-11-09T01:11:23;5.45;;;2.97;;
49450;SDS011;35336;48.400;10.886;2022-11-09T01:11:39;6.95;;;3.03;;
49450;SDS011;35336;48.400;10.886;2022-11-09T01:11:54;6.60;;;2.80;;
49450;SDS011;35336;48.400;10.886;2022-11-09T01:12:10;5.85;;;2.90;;
49450;SDS011;35336;48.400;10.886;2022-11-09T01:12:26;5.53;;;3.20;;
49450;SDS011;35336;48.400;10.886;2022-11-09T01:12:41;5.20;;;2.90;;
49450;SDS011;35336;48.400;10.886;2022-11-09T01:12:56;5.10;;;2.87;;
49450;SDS011;35336;48.400;10.886;2022-11-09T01:13:12;5.30;;;2.80;;
49450;SDS011;35336;48.400;10.886;2022-11-09T01:13:29;5.35;;;2.78;;
49450;SDS011;35336;48.400;10.886;2022-11-09T01:13:44;5.17;;;2.80;;
49450;SDS011;35336;48.400;10.886;2022-11-09T01:14:00;4.38;;;3.15;;
49450;SDS011;35336;48.400;10.886;2022-11-09T01:14:15;4.53;;;2.87;;
49450;SDS011;35336;48.400;10.886;2022-11-09T01:14:31;4.25;;;2.55;;
49450;SDS011;35336;48.400;10.886;2022-11-09T01:14:46;5.47;;;3.07;;
49450;SDS011;35336;48.400;10.886;2022-11-09T01:15:01;6.33;;;3.17;;
49450;SDS011;35336;48.400;10.886;2022-11-09T01:15:17;6.05;;;3.10;;
49450;SDS011;35336;48.400;10.886;2022-11-09T01:15:32;5.50;;;3.13;;
49450;SDS011;35336;48.400;10.886;2022-11-09T01:15:49;4.55;;;3.00;;
49450;SDS011;35336;48.400;10.886;2022-11-09T01:16:07;4.55;;;3.00;;
49450;SDS011;35336;48.400;10.886;2022-11-09T01:16:24;3.85;;;2.60;;
49450;SDS011;35336;48.400;10.886;2022-11-09T01:16:40;9.82;;;2.63;;
49450;SDS011;35336;48.400;10.886;2022-11-09T01:16:55;9.57;;;2.80;;
49450;SDS011;35336;48.400;10.886;2022-11-09T01:17:10;3.60;;;2.60;;
49450;SDS011;35336;48.400;10.886;2022-11-09T01:17:26;4.50;;;2.80;;
49450;SDS011;35336;48.400;10.886;2022-11-09T01:17:41;4.53;;;3.13;;
49450;SDS011;35336;48.400;10.886;2022-11-09T01:17:56;4.20;;;2.90;;
49450;SDS011;35336;48.400;10.886;2022-11-09T01:18:12;4.78;;;2.88;;
49450;SDS011;35336;48.400;10.886;2022-11-09T01:18:28;5.90;;;2.92;;
49450;SDS011;35336;48.400;10.886;2022-11-09T01:18:43;5.33;;;2.63;;
49450;SDS011;35336;48.400;10.886;2022-11-09T01:18:59;4.57;;;2.97;;
49450;SDS011;35336;48.400;10.886;2022-11-09T01:19:14;4.40;;;3.00;;
49450;SDS011;35336;48.400;10.886;2022-11-09T01:19:29;3.95;;;2.70;;
49450;SDS011;35336;48.400;10.886;2022-11-09T01:19:45;4.17;;;2.63;;
49450;SDS011;35336;48.400;10.886;2022-11-09T01:20:00;3.47;;;2.50;;
49450;SDS011;35336;48.400;10.886;2022-11-09T01:20:15;3.73;;;2.63;;
49450;SDS011;35336;48.400;10.886;2022-11-09T01:20:31;5.50;;;2.83;;
49450;SDS011;35336;48.400;10.886;2022-11-09T01:20:47;6.27;;;2.80;;
49450;SDS011;35336;48.400;10.886;2022-11-09T01:21:04;5.65;;;2.80;;
49450;SDS011;35336;48.400;10.886;2022-11-09T01:21:23;3.58;;;2.75;;
49450;SDS011;35336;48.400;10.886;2022-11-09T01:21:40;4.93;;;2.85;;
49450;SDS011;35336;48.400;10.886;2022-11-09T01:21:55;4.40;;;2.83;;
49450;SDS011;35336;48.400;10.886;2022-11-09T01:22:10;3.17;;;2.53;;
49450;SDS011;35336;48.400;10.886;2022-11-09T01:22:26;5.80;;;2.80;;
49450;SDS011;35336;48.400;10.886;2022-11-09T01:22:41;6.53;;;3.07;;
49450;SDS011;35336;48.400;10.886;2022-11-09T01:22:56;5.65;;;2.78;;
49450;SDS011;35336;48.400;10.886;2022-11-09T01:23:13;5.67;;;2.57;;
49450;SDS011;35336;48.400;10.886;2022-11-09T01:23:29;4.82;;;2.70;;
49450;SDS011;35336;48.400;10.886;2022-11-09T01:23:45;4.70;;;2.80;;
49450;SDS011;35336;48.400;10.886;2022-11-09T01:24:01;5.00;;;2.58;;
49450;SDS011;35336;48.400;10.886;2022-11-09T01:24:16;4.50;;;2.57;;
49450;SDS011;35336;48.400;10.886;2022-11-09T01:24:31;3.83;;;2.60;;
49450;SDS011;35336;48.400;10.886;2022-11-09T01:24:47;3.67;;;2.57;;
49450;SDS011;35336;48.400;10.886;2022-11-09T01:25:03;4.80;;;2.70;;
49450;SDS011;35336;48.400;10.886;2022-11-09T01:25:18;6.05;;;2.97;;
49450;SDS011;35336;48.400;10.886;2022-11-09T01:25:34;6.03;;;2.80;;
49450;SDS011;35336;48.400;10.886;2022-11-09T01:25:55;4.65;;;2.70;;
49450;SDS011;35336;48.400;10.886;2022-11-09T01:26:12;7.65;;;2.80;;
49450;SDS011;35336;48.400;10.886;2022-11-09T01:26:29;6.28;;;2.92;;
49450;SDS011;35336;48.400;10.886;2022-11-09T01:26:44;3.85;;;2.72;;
49450;SDS011;35336;48.400;10.886;2022-11-09T01:26:59;5.00;;;3.00;;
49450;SDS011;35336;48.400;10.886;2022-11-09T01:27:15;4.80;;;2.87;;
49450;SDS011;35336;48.400;10.886;2022-11-09T01:27:31;4.65;;;2.78;;
49450;SDS011;35336;48.400;10.886;2022-11-09T01:27:46;4.80;;;3.00;;
49450;SDS011;35336;48.400;10.886;2022-11-09T01:28:02;3.73;;;2.63;;
49450;SDS011;35336;48.400;10.886;2022-11-09T01:28:18;3.55;;;2.70;;
49450;SDS011;35336;48.400;10.886;2022-11-09T01:28:33;3.97;;;3.10;;
49450;SDS011;35336;48.400;10.886;2022-11-09T01:28:48;5.18;;;2.97;;
49450;SDS011;35336;48.400;10.886;2022-11-09T01:29:04;6.07;;;3.00;;
49450;SDS011;35336;48.400;10.886;2022-11-09T01:29:19;5.60;;;3.10;;
49450;SDS011;35336;48.400;10.886;2022-11-09T01:29:34;4.75;;;2.65;;
49450;SDS011;35336;48.400;10.886;2022-11-09T01:29:49;3.77;;;2.60;;
49450;SDS011;35336;48.400;10.886;2022-11-09T01:30:05;5.43;;;2.67;;
49450;SDS011;35336;48.400;10.886;2022-11-09T01:30:21;7.03;;;3.03;;
49450;SDS011;35336;48.400;10.886;2022-11-09T01:30:37;6.68;;;3.10;;
49450;SDS011;35336;48.400;10.886;2022-11-09T01:30:59;6.43;;;2.60;;
49450;SDS011;35336;48.400;10.886;2022-11-09T01:31:16;6.25;;;3.10;;
49450;SDS011;35336;48.400;10.886;2022-11-09T01:31:33;4.25;;;2.85;;
49450;SDS011;35336;48.400;10.886;2022-11-09T01:31:48;3.35;;;2.50;;
49450;SDS011;35336;48.400;10.886;2022-11-09T01:32:03;4.10;;;2.83;;
49450;SDS011;35336;48.400;10.886;2022-11-09T01:32:19;4.13;;;2.70;;
49450;SDS011;35336;48.400;10.886;2022-11-09T01:32:34;4.28;;;2.55;;
49450;SDS011;35336;48.400;10.886;2022-11-09T01:32:49;4.20;;;2.50;;
49450;SDS011;35336;48.400;10.886;2022-11-09T01:33:05;3.57;;;2.60;;
49450;SDS011;35336;48.400;10.886;2022-11-09T01:33:21;3.00;;;2.42;;
49450;SDS011;35336;48.400;10.886;2022-11-09T01:33:37;3.30;;;2.63;;
49450;SDS011;35336;48.400;10.886;2022-11-09T01:33:52;4.40;;;2.83;;
49450;SDS011;35336;48.400;10.886;2022-11-09T01:34:08;5.43;;;2.63;;